sensor_id;sensor_type;location;lat;lon;timestamp;temperature;humidity
11122;DHT22;5615;49.304;10.576;2024-01-15T00:01:01;-4.90;99.90
11122;DHT22;5615;49.304;10.576;2024-01-15T00:03:27;-4.90;99.90
11122;DHT22;5615;49.304;10.576;2024-01-15T00:05:54;-4.90;99.90
11122;DHT22;5615;49.304;10.576;2024-01-15T00:08:21;-4.80;99.90
11122;DHT22;5615;49.304;10.576;2024-01-15T00:10:47;-4.80;99.90
11122;DHT22;5615;49.304;10.576;2024-01-15T00:13:14;-4.80;99.90
11122;DHT22;5615;49.304;10.576;2024-01-15T00:15:41;-4.80;99.90
11122;DHT22;5615;49.304;10.576;2024-01-15T00:18:09;-4.70;99.90
11122;DHT22;5615;49.304;10.576;2024-01-15T00:20:35;-4.70;99.90
11122;DHT22;5615;49.304;10.576;2024-01-15T00:23:02;-4.70;99.90
11122;DHT22;5615;49.304;10.576;2024-01-15T00:25:29;-4.70;99.90
11122;DHT22;5615;49.304;10.576;2024-01-15T00:27:55;-4.60;99.90
11122;DHT22;5615;49.304;10.576;2024-01-15T00:30:22;-4.60;99.90
11122;DHT22;5615;49.304;10.576;2024-01-15T00:32:49;-4.60;99.90
11122;DHT22;5615;49.304;10.576;2024-01-15T00:35:17;-4.50;99.90
11122;DHT22;5615;49.304;10.576;2024-01-15T00:37:43;-4.50;99.90
11122;DHT22;5615;49.304;10.576;2024-01-15T00:40:10;-4.40;99.90
11122;DHT22;5615;49.304;10.576;2024-01-15T00:42:37;-4.40;99.90
11122;DHT22;5615;49.304;10.576;2024-01-15T00:45:04;-4.40;99.90
11122;DHT22;5615;49.304;10.576;2024-01-15T00:47:33;-4.40;99.90
11122;DHT22;5615;49.304;10.576;2024-01-15T00:49:59;-4.30;99.90
11122;DHT22;5615;49.304;10.576;2024-01-15T00:52:27;-4.30;99.90
11122;DHT22;5615;49.304;10.576;2024-01-15T00:54:54;-4.30;99.90
11122;DHT22;5615;49.304;10.576;2024-01-15T00:57:21;-4.30;99.90
11122;DHT22;5615;49.304;10.576;2024-01-15T00:59:47;-4.20;99.90
11122;DHT22;5615;49.304;10.576;2024-01-15T01:02:14;-4.20;99.90
11122;DHT22;5615;49.304;10.576;2024-01-15T01:04:41;-4.20;99.90
11122;DHT22;5615;49.304;10.576;2024-01-15T01:07:07;-4.20;99.90
11122;DHT22;5615;49.304;10.576;2024-01-15T01:09:35;-4.10;99.90
11122;DHT22;5615;49.304;10.576;2024-01-15T01:12:02;-4.10;99.90
11122;DHT22;5615;49.304;10.576;2024-01-15T01:14:29;-4.10;99.90
11122;DHT22;5615;49.304;10.576;2024-01-15T01:16:56;-4.10;99.90
11122;DHT22;5615;49.304;10.576;2024-01-15T01:19:22;-4.00;99.90
11122;DHT22;5615;49.304;10.576;2024-01-15T01:21:50;-4.10;99.90
11122;DHT22;5615;49.304;10.576;2024-01-15T01:24:17;-4.00;99.90
11122;DHT22;5615;49.304;10.576;2024-01-15T01:26:45;-4.00;99.90
11122;DHT22;5615;49.304;10.576;2024-01-15T01:29:12;-4.00;99.90
11122;DHT22;5615;49.304;10.576;2024-01-15T01:31:42;-4.00;99.90
11122;DHT22;5615;49.304;10.576;2024-01-15T01:34:09;-3.90;99.90
11122;DHT22;5615;49.304;10.576;2024-01-15T01:36:36;-3.90;99.90
11122;DHT22;5615;49.304;10.576;2024-01-15T01:39:02;-3.90;99.90
11122;DHT22;5615;49.304;10.576;2024-01-15T01:41:29;-3.80;99.90
11122;DHT22;5615;49.304;10.576;2024-01-15T01:43:57;-3.80;99.90
11122;DHT22;5615;49.304;10.576;2024-01-15T01:46:24;-3.80;99.90
11122;DHT22;5615;49.304;10.576;2024-01-15T01:48:51;-3.90;99.90
11122;DHT22;5615;49.304;10.576;2024-01-15T01:51:19;-3.80;99.90
11122;DHT22;5615;49.304;10.576;2024-01-15T01:53:46;-3.80;99.90
11122;DHT22;5615;49.304;10.576;2024-01-15T01:56:14;-3.90;99.90
11122;DHT22;5615;49.304;10.576;2024-01-15T01:58:41;-3.80;99.90
11122;DHT22;5615;49.304;10.576;2024-01-15T02:01:09;-3.80;99.90
11122;DHT22;5615;49.304;10.576;2024-01-15T02:03:36;-3.70;99.90
11122;DHT22;5615;49.304;10.576;2024-01-15T02:06:03;-3.80;99.90
11122;DHT22;5615;49.304;10.576;2024-01-15T02:08:30;-3.80;99.90
11122;DHT22;5615;49.304;10.576;2024-01-15T02:10:57;-3.70;99.90
11122;DHT22;5615;49.304;10.576;2024-01-15T02:13:23;-3.80;99.90
11122;DHT22;5615;49.304;10.576;2024-01-15T02:15:50;-3.70;99.90
11122;DHT22;5615;49.304;10.576;2024-01-15T02:18:18;-3.70;99.90
11122;DHT22;5615;49.304;10.576;2024-01-15T02:20:45;-3.70;99.90
11122;DHT22;5615;49.304;10.576;2024-01-15T02:23:14;-3.70;99.90
11122;DHT22;5615;49.304;10.576;2024-01-15T02:25:42;-3.60;99.90
11122;DHT22;5615;49.304;10.576;2024-01-15T02:28:11;-3.60;99.90
11122;DHT22;5615;49.304;10.576;2024-01-15T02:30:38;-3.60;99.90
11122;DHT22;5615;49.304;10.576;2024-01-15T02:33:06;-3.60;99.90
11122;DHT22;5615;49.304;10.576;2024-01-15T02:35:33;-3.60;99.90
11122;DHT22;5615;49.304;10.576;2024-01-15T02:38:02;-3.60;99.90
11122;DHT22;5615;49.304;10.576;2024-01-15T02:40:30;-3.60;99.90
11122;DHT22;5615;49.304;10.576;2024-01-15T02:42:57;-3.60;99.90
11122;DHT22;5615;49.304;10.576;2024-01-15T02:45:24;-3.60;99.90
11122;DHT22;5615;49.304;10.576;2024-01-15T02:47:50;-3.50;99.90
11122;DHT22;5615;49.304;10.576;2024-01-15T02:50:17;-3.50;99.90
11122;DHT22;5615;49.304;10.576;2024-01-15T02:52:44;-3.40;99.90
11122;DHT22;5615;49.304;10.576;2024-01-15T02:55:10;-3.50;99.90
11122;DHT22;5615;49.304;10.576;2024-01-15T02:57:38;-3.40;99.90
11122;DHT22;5615;49.304;10.576;2024-01-15T03:00:06;-3.40;99.90
11122;DHT22;5615;49.304;10.576;2024-01-15T03:02:35;-3.40;99.90
11122;DHT22;5615;49.304;10.576;2024-01-15T03:05:02;-3.40;99.90
11122;DHT22;5615;49.304;10.576;2024-01-15T03:07:30;-3.40;99.90
11122;DHT22;5615;49.304;10.576;2024-01-15T03:09:56;-3.30;99.90
11122;DHT22;5615;49.304;10.576;2024-01-15T03:12:23;-3.30;99.90
11122;DHT22;5615;49.304;10.576;2024-01-15T03:14:51;-3.40;99.90
11122;DHT22;5615;49.304;10.576;2024-01-15T03:17:18;-3.40;99.90
11122;DHT22;5615;49.304;10.576;2024-01-15T03:19:44;-3.40;99.90
11122;DHT22;5615;49.304;10.576;2024-01-15T03:22:11;-3.40;99.90
11122;DHT22;5615;49.304;10.576;2024-01-15T03:24:38;-3.40;99.90
11122;DHT22;5615;49.304;10.576;2024-01-15T03:27:05;-3.40;99.90
11122;DHT22;5615;49.304;10.576;2024-01-15T03:29:31;-3.30;99.90
11122;DHT22;5615;49.304;10.576;2024-01-15T03:31:59;-3.30;99.90
11122;DHT22;5615;49.304;10.576;2024-01-15T03:34:26;-3.20;99.90
11122;DHT22;5615;49.304;10.576;2024-01-15T03:36:53;-3.20;99.90
11122;DHT22;5615;49.304;10.576;2024-01-15T03:39:19;-3.20;99.90
11122;DHT22;5615;49.304;10.576;2024-01-15T03:41:46;-3.20;99.90
11122;DHT22;5615;49.304;10.576;2024-01-15T03:44:12;-3.20;99.90
11122;DHT22;5615;49.304;10.576;2024-01-15T03:46:39;-3.10;99.90
11122;DHT22;5615;49.304;10.576;2024-01-15T03:49:07;-3.10;99.90
11122;DHT22;5615;49.304;10.576;2024-01-15T03:51:34;-3.10;99.90
11122;DHT22;5615;49.304;10.576;2024-01-15T03:54:00;-3.10;99.90
11122;DHT22;5615;49.304;10.576;2024-01-15T03:56:27;-3.00;99.90
11122;DHT22;5615;49.304;10.576;2024-01-15T03:58:54;-3.00;99.90
11122;DHT22;5615;49.304;10.576;2024-01-15T04:01:20;-3.00;99.90
11122;DHT22;5615;49.304;10.576;2024-01-15T04:03:47;-3.00;99.90
11122;DHT22;5615;49.304;10.576;2024-01-15T04:06:15;-3.00;99.90
11122;DHT22;5615;49.304;10.576;2024-01-15T04:08:41;-3.00;99.90
11122;DHT22;5615;49.304;10.576;2024-01-15T04:11:08;-2.90;99.90
11122;DHT22;5615;49.304;10.576;2024-01-15T04:13:35;-2.90;99.90
11122;DHT22;5615;49.304;10.576;2024-01-15T04:16:01;-2.90;99.90
11122;DHT22;5615;49.304;10.576;2024-01-15T04:18:28;-2.90;99.90
11122;DHT22;5615;49.304;10.576;2024-01-15T04:20:55;-2.90;99.90
11122;DHT22;5615;49.304;10.576;2024-01-15T04:23:23;-2.90;99.90
11122;DHT22;5615;49.304;10.576;2024-01-15T04:25:50;-2.80;99.90
11122;DHT22;5615;49.304;10.576;2024-01-15T04:28:16;-2.90;99.90
11122;DHT22;5615;49.304;10.576;2024-01-15T04:30:43;-2.80;99.90
11122;DHT22;5615;49.304;10.576;2024-01-15T04:33:10;-2.80;99.90
11122;DHT22;5615;49.304;10.576;2024-01-15T04:35:37;-2.80;99.90
11122;DHT22;5615;49.304;10.576;2024-01-15T04:38:04;-2.80;99.90
11122;DHT22;5615;49.304;10.576;2024-01-15T04:40:32;-2.80;99.90
11122;DHT22;5615;49.304;10.576;2024-01-15T04:42:59;-2.80;99.90
11122;DHT22;5615;49.304;10.576;2024-01-15T04:45:25;-2.80;99.90
11122;DHT22;5615;49.304;10.576;2024-01-15T04:47:54;-2.80;99.90
11122;DHT22;5615;49.304;10.576;2024-01-15T04:50:21;-2.80;99.90
11122;DHT22;5615;49.304;10.576;2024-01-15T04:52:48;-2.70;99.90
11122;DHT22;5615;49.304;10.576;2024-01-15T04:55:14;-2.70;99.90
11122;DHT22;5615;49.304;10.576;2024-01-15T04:57:42;-2.70;99.90
11122;DHT22;5615;49.304;10.576;2024-01-15T05:00:10;-2.70;99.90
11122;DHT22;5615;49.304;10.576;2024-01-15T05:02:37;-2.70;99.90
11122;DHT22;5615;49.304;10.576;2024-01-15T05:05:04;-2.60;99.90
11122;DHT22;5615;49.304;10.576;2024-01-15T05:07:31;-2.70;99.90
11122;DHT22;5615;49.304;10.576;2024-01-15T05:09:57;-2.60;99.90
11122;DHT22;5615;49.304;10.576;2024-01-15T05:12:24;-2.60;99.90
11122;DHT22;5615;49.304;10.576;2024-01-15T05:14:52;-2.60;99.90
11122;DHT22;5615;49.304;10.576;2024-01-15T05:17:18;-2.60;99.90
11122;DHT22;5615;49.304;10.576;2024-01-15T05:19:45;-2.60;99.90
11122;DHT22;5615;49.304;10.576;2024-01-15T05:22:12;-2.60;99.90
11122;DHT22;5615;49.304;10.576;2024-01-15T05:24:38;-2.60;99.90
11122;DHT22;5615;49.304;10.576;2024-01-15T05:27:05;-2.50;99.90
11122;DHT22;5615;49.304;10.576;2024-01-15T05:29:32;-2.50;99.90
11122;DHT22;5615;49.304;10.576;2024-01-15T05:32:00;-2.50;99.90
11122;DHT22;5615;49.304;10.576;2024-01-15T05:34:26;-2.50;99.90
11122;DHT22;5615;49.304;10.576;2024-01-15T05:36:53;-2.40;99.90
11122;DHT22;5615;49.304;10.576;2024-01-15T05:39:19;-2.40;99.90
11122;DHT22;5615;49.304;10.576;2024-01-15T05:41:46;-2.40;99.90
11122;DHT22;5615;49.304;10.576;2024-01-15T05:44:13;-2.40;99.90
11122;DHT22;5615;49.304;10.576;2024-01-15T05:46:39;-2.40;99.90
11122;DHT22;5615;49.304;10.576;2024-01-15T05:49:07;-2.40;99.90
11122;DHT22;5615;49.304;10.576;2024-01-15T05:51:34;-2.40;99.90
11122;DHT22;5615;49.304;10.576;2024-01-15T05:54:01;-2.40;99.90
11122;DHT22;5615;49.304;10.576;2024-01-15T05:56:27;-2.40;99.90
11122;DHT22;5615;49.304;10.576;2024-01-15T05:58:54;-2.40;99.90
11122;DHT22;5615;49.304;10.576;2024-01-15T06:01:21;-2.40;99.90
11122;DHT22;5615;49.304;10.576;2024-01-15T06:03:47;-2.40;99.90
11122;DHT22;5615;49.304;10.576;2024-01-15T06:06:15;-2.40;99.90
11122;DHT22;5615;49.304;10.576;2024-01-15T06:08:42;-2.40;99.90
11122;DHT22;5615;49.304;10.576;2024-01-15T06:11:09;-2.40;99.90
11122;DHT22;5615;49.304;10.576;2024-01-15T06:13:35;-2.30;99.90
11122;DHT22;5615;49.304;10.576;2024-01-15T06:16:02;-2.30;99.90
11122;DHT22;5615;49.304;10.576;2024-01-15T06:18:29;-2.30;99.90
11122;DHT22;5615;49.304;10.576;2024-01-15T06:20:55;-2.30;99.90
11122;DHT22;5615;49.304;10.576;2024-01-15T06:23:23;-2.30;99.90
11122;DHT22;5615;49.304;10.576;2024-01-15T06:25:50;-2.30;99.90
11122;DHT22;5615;49.304;10.576;2024-01-15T06:28:17;-2.30;99.90
11122;DHT22;5615;49.304;10.576;2024-01-15T06:30:43;-2.30;99.90
11122;DHT22;5615;49.304;10.576;2024-01-15T06:33:10;-2.30;99.90
11122;DHT22;5615;49.304;10.576;2024-01-15T06:35:37;-2.30;99.90
11122;DHT22;5615;49.304;10.576;2024-01-15T06:38:04;-2.20;99.90
11122;DHT22;5615;49.304;10.576;2024-01-15T06:40:32;-2.30;99.90
11122;DHT22;5615;49.304;10.576;2024-01-15T06:42:58;-2.20;99.90
11122;DHT22;5615;49.304;10.576;2024-01-15T06:45:25;-2.20;99.90
11122;DHT22;5615;49.304;10.576;2024-01-15T06:47:51;-2.20;99.90
11122;DHT22;5615;49.304;10.576;2024-01-15T06:50:18;-2.10;99.90
11122;DHT22;5615;49.304;10.576;2024-01-15T06:52:45;-2.10;99.90
11122;DHT22;5615;49.304;10.576;2024-01-15T06:55:11;-2.10;99.90
11122;DHT22;5615;49.304;10.576;2024-01-15T06:57:39;-2.10;99.90
11122;DHT22;5615;49.304;10.576;2024-01-15T07:00:07;-2.10;99.90
11122;DHT22;5615;49.304;10.576;2024-01-15T07:02:34;-2.10;99.90
11122;DHT22;5615;49.304;10.576;2024-01-15T07:05:01;-2.10;99.90
11122;DHT22;5615;49.304;10.576;2024-01-15T07:07:30;-2.10;99.90
11122;DHT22;5615;49.304;10.576;2024-01-15T07:09:57;-2.10;99.90
11122;DHT22;5615;49.304;10.576;2024-01-15T07:12:23;-2.20;99.90
11122;DHT22;5615;49.304;10.576;2024-01-15T07:14:51;-2.10;99.90
11122;DHT22;5615;49.304;10.576;2024-01-15T07:17:18;-2.10;99.90
11122;DHT22;5615;49.304;10.576;2024-01-15T07:19:45;-2.10;99.90
11122;DHT22;5615;49.304;10.576;2024-01-15T07:22:11;-2.10;99.90
11122;DHT22;5615;49.304;10.576;2024-01-15T07:24:38;-2.10;99.90
11122;DHT22;5615;49.304;10.576;2024-01-15T07:27:05;-2.10;99.90
11122;DHT22;5615;49.304;10.576;2024-01-15T07:29:32;-2.10;99.90
11122;DHT22;5615;49.304;10.576;2024-01-15T07:32:03;-2.00;99.90
11122;DHT22;5615;49.304;10.576;2024-01-15T07:34:30;-2.00;99.90
11122;DHT22;5615;49.304;10.576;2024-01-15T07:36:57;-2.00;99.90
11122;DHT22;5615;49.304;10.576;2024-01-15T07:39:24;-2.00;99.90
11122;DHT22;5615;49.304;10.576;2024-01-15T07:41:51;-1.90;99.90
11122;DHT22;5615;49.304;10.576;2024-01-15T07:44:18;-1.90;99.90
11122;DHT22;5615;49.304;10.576;2024-01-15T07:46:44;-1.90;99.90
11122;DHT22;5615;49.304;10.576;2024-01-15T07:49:13;-1.90;99.90
11122;DHT22;5615;49.304;10.576;2024-01-15T07:51:40;-1.80;99.90
11122;DHT22;5615;49.304;10.576;2024-01-15T07:54:09;-1.80;99.90
11122;DHT22;5615;49.304;10.576;2024-01-15T07:56:53;-1.80;99.90
11122;DHT22;5615;49.304;10.576;2024-01-15T07:59:20;-1.70;99.90
11122;DHT22;5615;49.304;10.576;2024-01-15T08:01:46;-1.80;99.90
11122;DHT22;5615;49.304;10.576;2024-01-15T08:04:15;-1.80;99.90
11122;DHT22;5615;49.304;10.576;2024-01-15T08:06:41;-1.70;99.90
11122;DHT22;5615;49.304;10.576;2024-01-15T08:09:08;-1.80;99.90
11122;DHT22;5615;49.304;10.576;2024-01-15T08:11:35;-1.70;99.90
11122;DHT22;5615;49.304;10.576;2024-01-15T08:14:02;-1.70;99.90
11122;DHT22;5615;49.304;10.576;2024-01-15T08:16:28;-1.80;99.90
11122;DHT22;5615;49.304;10.576;2024-01-15T08:18:55;-1.70;99.90
11122;DHT22;5615;49.304;10.576;2024-01-15T08:21:23;-1.70;99.90
11122;DHT22;5615;49.304;10.576;2024-01-15T08:23:50;-1.70;99.90
11122;DHT22;5615;49.304;10.576;2024-01-15T08:26:17;-1.70;99.90
11122;DHT22;5615;49.304;10.576;2024-01-15T08:28:44;-1.70;99.90
11122;DHT22;5615;49.304;10.576;2024-01-15T08:31:10;-1.60;99.90
11122;DHT22;5615;49.304;10.576;2024-01-15T08:33:37;-1.70;99.90
11122;DHT22;5615;49.304;10.576;2024-01-15T08:36:04;-1.60;99.90
11122;DHT22;5615;49.304;10.576;2024-01-15T08:38:32;-1.70;99.90
11122;DHT22;5615;49.304;10.576;2024-01-15T08:40:59;-1.70;99.90
11122;DHT22;5615;49.304;10.576;2024-01-15T08:43:26;-1.70;99.90
11122;DHT22;5615;49.304;10.576;2024-01-15T08:45:52;-1.70;99.90
11122;DHT22;5615;49.304;10.576;2024-01-15T08:48:19;-1.60;99.90
11122;DHT22;5615;49.304;10.576;2024-01-15T08:50:46;-1.60;99.90
11122;DHT22;5615;49.304;10.576;2024-01-15T08:53:13;-1.60;99.90
11122;DHT22;5615;49.304;10.576;2024-01-15T08:55:41;-1.60;99.90
11122;DHT22;5615;49.304;10.576;2024-01-15T08:58:09;-1.60;99.90
11122;DHT22;5615;49.304;10.576;2024-01-15T09:00:36;-1.60;99.90
11122;DHT22;5615;49.304;10.576;2024-01-15T09:03:03;-1.60;99.90
11122;DHT22;5615;49.304;10.576;2024-01-15T09:05:30;-1.60;99.90
11122;DHT22;5615;49.304;10.576;2024-01-15T09:07:56;-1.50;99.90
11122;DHT22;5615;49.304;10.576;2024-01-15T09:10:23;-1.50;99.90
11122;DHT22;5615;49.304;10.576;2024-01-15T09:12:51;-1.40;99.90
11122;DHT22;5615;49.304;10.576;2024-01-15T09:15:18;-1.30;99.90
11122;DHT22;5615;49.304;10.576;2024-01-15T09:17:45;-1.40;99.90
11122;DHT22;5615;49.304;10.576;2024-01-15T09:20:12;-1.30;99.90
11122;DHT22;5615;49.304;10.576;2024-01-15T09:22:39;-1.30;99.90
11122;DHT22;5615;49.304;10.576;2024-01-15T09:25:07;-1.20;99.90
11122;DHT22;5615;49.304;10.576;2024-01-15T09:27:34;-1.20;99.90
11122;DHT22;5615;49.304;10.576;2024-01-15T09:30:03;-1.20;99.90
11122;DHT22;5615;49.304;10.576;2024-01-15T09:32:30;-1.20;99.90
11122;DHT22;5615;49.304;10.576;2024-01-15T09:34:58;-1.20;99.90
11122;DHT22;5615;49.304;10.576;2024-01-15T09:37:25;-1.20;99.90
11122;DHT22;5615;49.304;10.576;2024-01-15T09:39:51;-1.00;99.90
11122;DHT22;5615;49.304;10.576;2024-01-15T09:42:19;-1.10;99.90
11122;DHT22;5615;49.304;10.576;2024-01-15T09:44:46;-1.10;99.90
11122;DHT22;5615;49.304;10.576;2024-01-15T09:47:15;-1.20;99.90
11122;DHT22;5615;49.304;10.576;2024-01-15T09:49:42;-1.30;99.90
11122;DHT22;5615;49.304;10.576;2024-01-15T09:52:11;-1.20;99.90
11122;DHT22;5615;49.304;10.576;2024-01-15T09:54:38;-1.30;99.90
11122;DHT22;5615;49.304;10.576;2024-01-15T09:57:05;-1.30;99.90
11122;DHT22;5615;49.304;10.576;2024-01-15T09:59:33;-1.20;99.90
11122;DHT22;5615;49.304;10.576;2024-01-15T10:02:01;-1.30;99.90
11122;DHT22;5615;49.304;10.576;2024-01-15T10:04:30;-1.30;99.90
11122;DHT22;5615;49.304;10.576;2024-01-15T10:06:58;-1.30;99.90
11122;DHT22;5615;49.304;10.576;2024-01-15T10:09:26;-1.20;99.90
11122;DHT22;5615;49.304;10.576;2024-01-15T10:11:53;-1.20;99.90
11122;DHT22;5615;49.304;10.576;2024-01-15T10:14:20;-1.20;99.90
11122;DHT22;5615;49.304;10.576;2024-01-15T10:16:47;-1.20;99.90
11122;DHT22;5615;49.304;10.576;2024-01-15T10:19:14;-1.20;99.90
11122;DHT22;5615;49.304;10.576;2024-01-15T10:21:42;-1.20;99.90
11122;DHT22;5615;49.304;10.576;2024-01-15T10:24:08;-1.20;99.90
11122;DHT22;5615;49.304;10.576;2024-01-15T10:26:35;-1.10;99.90
11122;DHT22;5615;49.304;10.576;2024-01-15T10:29:02;-1.10;99.90
11122;DHT22;5615;49.304;10.576;2024-01-15T10:31:28;-1.10;99.90
11122;DHT22;5615;49.304;10.576;2024-01-15T10:34:10;-1.00;99.90
11122;DHT22;5615;49.304;10.576;2024-01-15T10:36:39;-0.90;99.90
11122;DHT22;5615;49.304;10.576;2024-01-15T10:39:07;-0.90;99.90
11122;DHT22;5615;49.304;10.576;2024-01-15T10:41:34;-0.80;99.90
11122;DHT22;5615;49.304;10.576;2024-01-15T10:44:01;-0.90;99.90
11122;DHT22;5615;49.304;10.576;2024-01-15T10:46:28;-0.90;99.90
11122;DHT22;5615;49.304;10.576;2024-01-15T10:48:56;-0.80;99.90
11122;DHT22;5615;49.304;10.576;2024-01-15T10:51:23;-0.70;99.90
11122;DHT22;5615;49.304;10.576;2024-01-15T10:53:52;-0.70;99.90
11122;DHT22;5615;49.304;10.576;2024-01-15T10:56:21;-0.70;99.90
11122;DHT22;5615;49.304;10.576;2024-01-15T10:58:50;-0.80;99.90
11122;DHT22;5615;49.304;10.576;2024-01-15T11:01:17;-1.00;99.90
11122;DHT22;5615;49.304;10.576;2024-01-15T11:03:45;-0.90;99.90
11122;DHT22;5615;49.304;10.576;2024-01-15T11:06:19;-1.00;99.90
11122;DHT22;5615;49.304;10.576;2024-01-15T11:08:47;-1.00;99.90
11122;DHT22;5615;49.304;10.576;2024-01-15T11:11:15;-1.20;99.90
11122;DHT22;5615;49.304;10.576;2024-01-15T11:13:46;-1.20;99.90
11122;DHT22;5615;49.304;10.576;2024-01-15T11:16:16;-1.10;99.90
11122;DHT22;5615;49.304;10.576;2024-01-15T11:18:45;-1.20;99.90
11122;DHT22;5615;49.304;10.576;2024-01-15T11:21:27;-1.20;99.90
11122;DHT22;5615;49.304;10.576;2024-01-15T11:23:56;-1.20;99.90
11122;DHT22;5615;49.304;10.576;2024-01-15T11:26:35;-1.20;99.90
11122;DHT22;5615;49.304;10.576;2024-01-15T11:29:04;-1.30;99.90
11122;DHT22;5615;49.304;10.576;2024-01-15T11:31:57;-1.30;99.90
11122;DHT22;5615;49.304;10.576;2024-01-15T11:34:50;-1.30;99.90
11122;DHT22;5615;49.304;10.576;2024-01-15T11:37:17;-1.30;99.90
11122;DHT22;5615;49.304;10.576;2024-01-15T11:39:44;-1.20;99.90
11122;DHT22;5615;49.304;10.576;2024-01-15T11:42:11;-1.20;99.90
11122;DHT22;5615;49.304;10.576;2024-01-15T11:44:39;-1.10;99.90
11122;DHT22;5615;49.304;10.576;2024-01-15T11:47:07;-1.10;99.90
11122;DHT22;5615;49.304;10.576;2024-01-15T11:49:58;-1.10;99.90
11122;DHT22;5615;49.304;10.576;2024-01-15T11:52:25;-1.10;99.90
11122;DHT22;5615;49.304;10.576;2024-01-15T11:54:57;-1.10;99.90
11122;DHT22;5615;49.304;10.576;2024-01-15T11:57:33;-1.10;99.90
11122;DHT22;5615;49.304;10.576;2024-01-15T12:00:02;-1.00;99.90
11122;DHT22;5615;49.304;10.576;2024-01-15T12:02:29;-1.00;99.90
11122;DHT22;5615;49.304;10.576;2024-01-15T12:04:56;-1.10;99.90
11122;DHT22;5615;49.304;10.576;2024-01-15T12:07:23;-1.00;99.90
11122;DHT22;5615;49.304;10.576;2024-01-15T12:09:49;-1.10;99.90
11122;DHT22;5615;49.304;10.576;2024-01-15T12:12:24;-1.10;99.90
11122;DHT22;5615;49.304;10.576;2024-01-15T12:14:51;-1.10;99.90
11122;DHT22;5615;49.304;10.576;2024-01-15T12:17:19;-1.10;99.90
11122;DHT22;5615;49.304;10.576;2024-01-15T12:19:46;-1.10;99.90
11122;DHT22;5615;49.304;10.576;2024-01-15T12:22:13;-1.10;99.90
11122;DHT22;5615;49.304;10.576;2024-01-15T12:24:40;-1.10;99.90
11122;DHT22;5615;49.304;10.576;2024-01-15T12:27:08;-1.20;99.90
11122;DHT22;5615;49.304;10.576;2024-01-15T12:29:35;-1.20;99.90
11122;DHT22;5615;49.304;10.576;2024-01-15T12:32:01;-1.20;99.90
11122;DHT22;5615;49.304;10.576;2024-01-15T12:34:30;-1.30;99.90
11122;DHT22;5615;49.304;10.576;2024-01-15T12:36:57;-1.20;99.90
11122;DHT22;5615;49.304;10.576;2024-01-15T12:39:24;-1.20;99.90
11122;DHT22;5615;49.304;10.576;2024-01-15T12:41:51;-1.20;99.90
11122;DHT22;5615;49.304;10.576;2024-01-15T12:44:18;-1.20;99.90
11122;DHT22;5615;49.304;10.576;2024-01-15T12:46:45;-1.20;99.90
11122;DHT22;5615;49.304;10.576;2024-01-15T12:49:13;-1.20;99.90
11122;DHT22;5615;49.304;10.576;2024-01-15T12:51:41;-1.20;99.90
11122;DHT22;5615;49.304;10.576;2024-01-15T12:54:07;-1.20;99.90
11122;DHT22;5615;49.304;10.576;2024-01-15T12:56:34;-1.20;99.90
11122;DHT22;5615;49.304;10.576;2024-01-15T12:59:01;-1.10;99.90
11122;DHT22;5615;49.304;10.576;2024-01-15T13:01:27;-1.20;99.90
11122;DHT22;5615;49.304;10.576;2024-01-15T13:03:54;-1.30;99.90
11122;DHT22;5615;49.304;10.576;2024-01-15T13:06:21;-1.20;99.90
11122;DHT22;5615;49.304;10.576;2024-01-15T13:08:49;-1.30;99.90
11122;DHT22;5615;49.304;10.576;2024-01-15T13:11:15;-1.30;99.90
11122;DHT22;5615;49.304;10.576;2024-01-15T13:13:43;-1.30;99.90
11122;DHT22;5615;49.304;10.576;2024-01-15T13:16:09;-1.30;99.90
11122;DHT22;5615;49.304;10.576;2024-01-15T13:18:36;-1.20;99.90
11122;DHT22;5615;49.304;10.576;2024-01-15T13:21:03;-1.30;99.90
11122;DHT22;5615;49.304;10.576;2024-01-15T13:23:30;-1.30;99.90
11122;DHT22;5615;49.304;10.576;2024-01-15T13:25:58;-1.30;99.90
11122;DHT22;5615;49.304;10.576;2024-01-15T13:28:24;-1.20;99.90
11122;DHT22;5615;49.304;10.576;2024-01-15T13:30:51;-1.20;99.90
11122;DHT22;5615;49.304;10.576;2024-01-15T13:33:18;-1.20;99.90
11122;DHT22;5615;49.304;10.576;2024-01-15T13:35:45;-1.20;99.90
11122;DHT22;5615;49.304;10.576;2024-01-15T13:38:15;-1.30;99.90
11122;DHT22;5615;49.304;10.576;2024-01-15T13:40:41;-1.20;99.90
11122;DHT22;5615;49.304;10.576;2024-01-15T13:43:11;-1.20;99.90
11122;DHT22;5615;49.304;10.576;2024-01-15T13:45:40;-1.20;99.90
11122;DHT22;5615;49.304;10.576;2024-01-15T13:48:07;-1.10;99.90
11122;DHT22;5615;49.304;10.576;2024-01-15T13:50:34;-1.10;99.90
11122;DHT22;5615;49.304;10.576;2024-01-15T13:53:02;-1.10;99.90
11122;DHT22;5615;49.304;10.576;2024-01-15T13:55:29;-1.10;99.90
11122;DHT22;5615;49.304;10.576;2024-01-15T13:57:56;-1.00;99.90
11122;DHT22;5615;49.304;10.576;2024-01-15T14:00:24;-1.00;99.90
11122;DHT22;5615;49.304;10.576;2024-01-15T14:02:50;-0.90;99.90
11122;DHT22;5615;49.304;10.576;2024-01-15T14:05:17;-0.90;99.90
11122;DHT22;5615;49.304;10.576;2024-01-15T14:07:44;-0.90;99.90
11122;DHT22;5615;49.304;10.576;2024-01-15T14:10:10;-0.90;99.90
11122;DHT22;5615;49.304;10.576;2024-01-15T14:12:37;-1.00;99.90
11122;DHT22;5615;49.304;10.576;2024-01-15T14:15:05;-0.90;99.90
11122;DHT22;5615;49.304;10.576;2024-01-15T14:17:33;-0.90;99.90
11122;DHT22;5615;49.304;10.576;2024-01-15T14:20:00;-0.90;99.90
11122;DHT22;5615;49.304;10.576;2024-01-15T14:22:27;-0.90;99.90
11122;DHT22;5615;49.304;10.576;2024-01-15T14:24:53;-0.80;99.90
11122;DHT22;5615;49.304;10.576;2024-01-15T14:27:20;-0.80;99.90
11122;DHT22;5615;49.304;10.576;2024-01-15T14:29:47;-0.80;99.90
11122;DHT22;5615;49.304;10.576;2024-01-15T14:32:13;-0.80;99.90
11122;DHT22;5615;49.304;10.576;2024-01-15T14:34:41;-0.80;99.90
11122;DHT22;5615;49.304;10.576;2024-01-15T14:37:08;-0.80;99.90
11122;DHT22;5615;49.304;10.576;2024-01-15T14:39:36;-0.80;99.90
11122;DHT22;5615;49.304;10.576;2024-01-15T14:42:03;-0.90;99.90
11122;DHT22;5615;49.304;10.576;2024-01-15T14:44:30;-0.80;99.90
11122;DHT22;5615;49.304;10.576;2024-01-15T14:46:58;-0.90;99.90
11122;DHT22;5615;49.304;10.576;2024-01-15T14:49:24;-0.80;99.90
11122;DHT22;5615;49.304;10.576;2024-01-15T14:51:52;-0.90;99.90
11122;DHT22;5615;49.304;10.576;2024-01-15T14:54:19;-0.90;99.90
11122;DHT22;5615;49.304;10.576;2024-01-15T14:56:46;-0.90;99.90
11122;DHT22;5615;49.304;10.576;2024-01-15T14:59:13;-1.00;99.90
11122;DHT22;5615;49.304;10.576;2024-01-15T15:01:40;-0.90;99.90
11122;DHT22;5615;49.304;10.576;2024-01-15T15:04:07;-1.00;99.90
11122;DHT22;5615;49.304;10.576;2024-01-15T15:06:36;-1.10;99.90
11122;DHT22;5615;49.304;10.576;2024-01-15T15:09:03;-1.10;99.90
11122;DHT22;5615;49.304;10.576;2024-01-15T15:11:34;-1.10;99.90
11122;DHT22;5615;49.304;10.576;2024-01-15T15:14:02;-1.10;99.90
11122;DHT22;5615;49.304;10.576;2024-01-15T15:16:31;-1.10;99.90
11122;DHT22;5615;49.304;10.576;2024-01-15T15:18:58;-1.20;99.90
11122;DHT22;5615;49.304;10.576;2024-01-15T15:21:25;-1.20;99.90
11122;DHT22;5615;49.304;10.576;2024-01-15T15:23:52;-1.40;99.90
11122;DHT22;5615;49.304;10.576;2024-01-15T15:26:20;-1.50;99.90
11122;DHT22;5615;49.304;10.576;2024-01-15T15:28:46;-1.50;99.90
11122;DHT22;5615;49.304;10.576;2024-01-15T15:31:13;-1.50;99.90